Time,TemperatureF,DewpointF,PressureIn,WindDirection,WindDirectionDegrees,WindSpeedMPH,WindSpeedGustMPH,Humidity,HourlyPrecipIn,Conditions,Clouds,dailyrainin,SoftwareType,DateUTC
2013-03-01 00:00:00,42.1,30.4,29.71,SE,135,0.7,1.1,63,0.00,,,0.01,WUHU216HW,2013-03-01 05:00:00,
2013-03-01 00:05:00,42.1,30.4,29.71,ESE,113,0.9,2.0,63,0.00,,,0.00,WUHU216HW,2013-03-01 05:05:00,
2013-03-01 00:06:00,42.1,30.4,29.71,ESE,113,0.9,2.0,63,0.00,,,0.00,WUHU216HW,2013-03-01 05:06:00,
2013-03-01 00:11:00,42.1,30.4,29.70,SW,225,2.5,2.5,63,0.00,,,0.00,WUHU216HW,2013-03-01 05:11:00,
2013-03-01 00:16:00,42.1,30.4,29.71,ESE,113,1.6,2.5,63,0.00,,,0.00,WUHU216HW,2013-03-01 05:16:00,
2013-03-01 00:21:00,42.1,30.4,29.71,ESE,113,2.7,2.7,63,0.00,,,0.00,WUHU216HW,2013-03-01 05:21:00,
2013-03-01 00:26:00,42.1,30.4,29.71,East,90,0.9,2.7,63,0.00,,,0.00,WUHU216HW,2013-03-01 05:26:00,
2013-03-01 00:31:00,42.1,30.4,29.71,SSW,203,0.0,2.9,63,0.00,,,0.00,WUHU216HW,2013-03-01 05:31:00,
2013-03-01 00:36:00,42.1,30.4,29.71,ESE,113,0.2,2.9,63,0.00,,,0.00,WUHU216HW,2013-03-01 05:36:00,
2013-03-01 00:41:00,42.1,30.8,29.71,ESE,113,0.4,2.0,64,0.00,,,0.00,WUHU216HW,2013-03-01 05:41:00,
2013-03-01 00:47:00,42.1,30.8,29.71,ENE,68,0.4,1.8,64,0.00,,,0.00,WUHU216HW,2013-03-01 05:47:00,
2013-03-01 00:52:00,41.9,30.6,29.71,NE,45,0.7,1.6,64,0.00,,,0.00,WUHU216HW,2013-03-01 05:52:00,
2013-03-01 00:57:00,41.9,30.6,29.72,North,0,0.0,1.8,64,0.00,,,0.00,WUHU216HW,2013-03-01 05:57:00,
2013-03-01 01:02:00,41.9,30.6,29.72,SE,135,1.8,1.8,64,0.00,,,0.00,WUHU216HW,2013-03-01 06:02:00,
2013-03-01 01:07:00,41.9,30.6,29.72,ENE,68,1.1,1.8,64,0.00,,,0.00,WUHU216HW,2013-03-01 06:07:00,
2013-03-01 01:12:00,41.9,30.6,29.72,NE,45,1.3,1.8,64,0.00,,,0.00,WUHU216HW,2013-03-01 06:12:00,
2013-03-01 01:17:00,41.9,31.0,29.72,ESE,113,0.7,1.3,65,0.00,,,0.00,WUHU216HW,2013-03-01 06:17:00,
2013-03-01 01:22:00,41.9,31.0,29.72,ENE,68,1.6,1.6,65,0.00,,,0.00,WUHU216HW,2013-03-01 06:22:00,
2013-03-01 01:27:00,41.8,30.9,29.73,SE,135,0.4,1.8,65,0.00,,,0.00,WUHU216HW,2013-03-01 06:27:00,
2013-03-01 01:32:00,41.8,30.9,29.73,ENE,68,0.7,1.8,65,0.00,,,0.00,WUHU216HW,2013-03-01 06:32:00,
2013-03-01 01:37:00,41.8,30.9,29.72,South,180,1.6,2.2,65,0.00,,,0.00,WUHU216HW,2013-03-01 06:37:00,
2013-03-01 01:42:00,41.8,30.9,29.72,ESE,113,2.5,2.5,65,0.00,,,0.00,WUHU216HW,2013-03-01 06:42:00,
2013-03-01 01:47:00,41.8,30.9,29.72,SE,135,1.1,2.5,65,0.00,,,0.00,WUHU216HW,2013-03-01 06:47:00,
2013-03-01 01:53:00,41.8,30.9,29.72,SE,135,0.4,2.5,65,0.00,,,0.00,WUHU216HW,2013-03-01 06:53:00,
2013-03-01 01:58:00,41.8,30.9,29.73,SE,135,0.2,1.1,65,0.00,,,0.00,WUHU216HW,2013-03-01 06:58:00,
2013-03-01 02:03:00,41.8,30.9,29.73,SSE,158,0.4,1.6,65,0.00,,,0.00,WUHU216HW,2013-03-01 07:03:00,
2013-03-01 02:08:00,41.8,30.9,29.73,ESE,113,1.1,2.5,65,0.00,,,0.00,WUHU216HW,2013-03-01 07:08:00,
2013-03-01 02:13:00,41.8,31.2,29.72,ESE,113,0.7,2.5,66,0.00,,,0.00,WUHU216HW,2013-03-01 07:13:00,
2013-03-01 02:18:00,41.8,31.2,29.72,SE,135,0.2,2.5,66,0.00,,,0.00,WUHU216HW,2013-03-01 07:18:00,
2013-03-01 02:23:00,41.8,30.9,29.72,ENE,68,0.2,1.1,65,0.00,,,0.00,WUHU216HW,2013-03-01 07:23:00,
2013-03-01 02:28:00,41.8,30.9,29.72,ENE,68,0.4,2.7,65,0.00,,,0.00,WUHU216HW,2013-03-01 07:28:00,
2013-03-01 02:33:00,41.6,30.7,29.72,ESE,113,0.0,2.7,65,0.00,,,0.00,WUHU216HW,2013-03-01 07:33:00,
2013-03-01 02:38:00,41.6,31.1,29.72,SE,135,1.1,1.1,66,0.00,,,0.00,WUHU216HW,2013-03-01 07:38:00,
2013-03-01 02:43:00,41.6,31.1,29.72,SE,135,0.4,1.1,66,0.00,,,0.00,WUHU216HW,2013-03-01 07:43:00,
2013-03-01 02:48:00,41.6,31.1,29.72,ESE,113,0.0,1.1,66,0.00,,,0.00,WUHU216HW,2013-03-01 07:48:00,
2013-03-01 02:53:00,41.6,31.1,29.72,SSW,203,0.9,1.1,66,0.00,,,0.00,WUHU216HW,2013-03-01 07:53:00,
2013-03-01 02:58:00,41.6,30.7,29.73,SE,135,0.4,3.4,65,0.00,,,0.00,WUHU216HW,2013-03-01 07:58:00,
2013-03-01 03:03:00,41.8,30.9,29.72,SSE,158,0.0,3.4,65,0.00,,,0.00,WUHU216HW,2013-03-01 08:03:00,
2013-03-01 03:08:00,41.6,30.7,29.73,SE,135,0.4,0.9,65,0.00,,,0.00,WUHU216HW,2013-03-01 08:08:00,
2013-03-01 03:14:00,41.6,30.7,29.73,SW,225,0.4,0.9,65,0.00,,,0.00,WUHU216HW,2013-03-01 08:14:00,
2013-03-01 03:19:00,41.6,30.7,29.73,SE,135,0.7,1.1,65,0.00,,,0.00,WUHU216HW,2013-03-01 08:19:00,
2013-03-01 03:24:00,41.6,30.7,29.73,SSE,158,0.4,1.3,65,0.00,,,0.00,WUHU216HW,2013-03-01 08:24:00,
2013-03-01 03:29:00,41.6,30.7,29.73,East,90,1.8,2.5,65,0.00,,,0.00,WUHU216HW,2013-03-01 08:29:00,
2013-03-01 03:34:00,41.6,30.7,29.73,SE,135,1.1,2.5,65,0.00,,,0.00,WUHU216HW,2013-03-01 08:34:00,
2013-03-01 03:39:00,41.6,30.7,29.73,SSE,158,1.1,2.0,65,0.00,,,0.00,WUHU216HW,2013-03-01 08:39:00,
2013-03-01 03:44:00,41.6,30.7,29.73,SE,135,1.1,1.6,65,0.00,,,0.00,WUHU216HW,2013-03-01 08:44:00,
2013-03-01 03:49:00,41.4,30.5,29.73,West,270,0.7,1.6,65,0.00,,,0.00,WUHU216HW,2013-03-01 08:49:00,
2013-03-01 03:54:00,41.4,30.5,29.73,ESE,113,0.4,1.8,65,0.00,,,0.00,WUHU216HW,2013-03-01 08:54:00,
2013-03-01 03:59:00,41.4,30.5,29.73,East,90,0.7,3.4,65,0.00,,,0.00,WUHU216HW,2013-03-01 08:59:00,
2013-03-01 04:04:00,41.4,30.9,29.73,ESE,113,0.4,3.4,66,0.00,,,0.00,WUHU216HW,2013-03-01 09:04:00,
2013-03-01 04:09:00,41.4,30.9,29.73,SE,135,0.2,4.3,66,0.00,,,0.00,WUHU216HW,2013-03-01 09:09:00,
2013-03-01 04:14:00,41.2,30.7,29.73,SSE,158,1.8,4.3,66,0.00,,,0.00,WUHU216HW,2013-03-01 09:14:00,
2013-03-01 04:19:00,41.2,30.7,29.73,ESE,113,3.4,4.3,66,0.00,,,0.00,WUHU216HW,2013-03-01 09:19:00,
2013-03-01 04:24:00,41.2,30.7,29.73,SSE,158,0.4,4.3,66,0.00,,,0.00,WUHU216HW,2013-03-01 09:24:00,
2013-03-01 04:29:00,41.2,30.7,29.73,SE,135,0.2,0.9,66,0.00,,,0.00,WUHU216HW,2013-03-01 09:29:00,
2013-03-01 04:34:00,41.0,30.5,29.73,WNW,293,0.2,1.3,66,0.00,,,0.00,WUHU216HW,2013-03-01 09:34:00,
2013-03-01 04:40:00,41.0,30.5,29.73,SSE,158,0.4,1.3,66,0.00,,,0.00,WUHU216HW,2013-03-01 09:40:00,
2013-03-01 04:45:00,41.0,30.5,29.73,SSE,158,0.4,1.1,66,0.00,,,0.00,WUHU216HW,2013-03-01 09:45:00,
2013-03-01 05:00:00,40.9,30.3,29.73,SE,135,1.8,1.8,66,0.00,,,0.00,WUHU216HW,2013-03-01 10:00:00,
2013-03-01 05:05:00,40.9,30.3,29.73,ENE,68,1.1,1.8,66,0.00,,,0.00,WUHU216HW,2013-03-01 10:05:00,
2013-03-01 05:10:00,40.9,30.3,29.73,WNW,293,1.3,2.2,66,0.00,,,0.00,WUHU216HW,2013-03-01 10:10:00,
2013-03-01 05:15:00,40.9,30.3,29.73,SSE,158,1.8,2.2,66,0.00,,,0.00,WUHU216HW,2013-03-01 10:15:00,
2013-03-01 05:20:00,40.9,30.3,29.73,SE,135,2.2,2.2,66,0.00,,,0.00,WUHU216HW,2013-03-01 10:20:00,
2013-03-01 05:25:00,41.0,30.5,29.73,SW,225,0.7,2.2,66,0.00,,,0.00,WUHU216HW,2013-03-01 10:25:00,
2013-03-01 05:30:00,40.9,30.3,29.73,SW,225,0.4,2.0,66,0.00,,,0.00,WUHU216HW,2013-03-01 10:30:00,
2013-03-01 05:35:00,40.9,30.3,29.73,SW,225,0.0,1.3,66,0.00,,,0.00,WUHU216HW,2013-03-01 10:35:00,
2013-03-01 05:40:00,40.9,30.3,29.74,SE,135,0.2,1.3,66,0.00,,,0.00,WUHU216HW,2013-03-01 10:40:00,
2013-03-01 05:46:00,40.7,30.2,29.74,East,90,0.4,2.0,66,0.00,,,0.00,WUHU216HW,2013-03-01 10:46:00,
2013-03-01 05:51:00,40.7,30.2,29.74,ESE,113,0.0,2.0,66,0.00,,,0.00,WUHU216HW,2013-03-01 10:51:00,
2013-03-01 05:56:00,40.7,30.2,29.74,SSW,203,0.9,1.6,66,0.00,,,0.00,WUHU216HW,2013-03-01 10:56:00,
2013-03-01 06:01:00,40.7,30.5,29.74,East,90,0.0,1.6,67,0.00,,,0.00,WUHU216HW,2013-03-01 11:01:00,
2013-03-01 06:06:00,40.7,30.2,29.74,ESE,113,0.2,1.3,66,0.00,,,0.00,WUHU216HW,2013-03-01 11:06:00,
2013-03-01 06:11:00,40.7,30.2,29.75,SSE,158,0.2,1.1,66,0.00,,,0.00,WUHU216HW,2013-03-01 11:11:00,
2013-03-01 06:16:00,40.7,30.5,29.75,SSE,158,4.0,4.0,67,0.00,,,0.00,WUHU216HW,2013-03-01 11:16:00,
2013-03-01 06:21:00,40.7,30.5,29.75,SE,135,0.9,4.0,67,0.00,,,0.00,WUHU216HW,2013-03-01 11:21:00,
2013-03-01 06:26:00,40.7,30.5,29.75,SSE,158,0.9,2.0,67,0.00,,,0.00,WUHU216HW,2013-03-01 11:26:00,
2013-03-01 06:31:00,40.7,30.5,29.75,SE,135,0.4,2.0,67,0.00,,,0.00,WUHU216HW,2013-03-01 11:31:00,
2013-03-01 06:36:00,40.7,30.5,29.75,South,180,2.2,2.2,67,0.00,,,0.00,WUHU216HW,2013-03-01 11:36:00,
2013-03-01 06:41:00,40.7,30.5,29.75,SE,135,1.1,2.2,67,0.00,,,0.00,WUHU216HW,2013-03-01 11:41:00,
2013-03-01 06:46:00,40.7,30.5,29.75,North,0,0.4,2.0,67,0.00,,,0.00,WUHU216HW,2013-03-01 11:46:00,
2013-03-01 06:51:00,40.7,30.5,29.75,ESE,113,0.9,1.1,67,0.00,,,0.00,WUHU216HW,2013-03-01 11:51:00,
2013-03-01 06:57:00,40.7,30.5,29.75,WSW,248,1.1,2.2,67,0.00,,,0.00,WUHU216HW,2013-03-01 11:57:00,
2013-03-01 07:02:00,40.7,30.5,29.76,SSE,158,0.4,2.2,67,0.00,,,0.00,WUHU216HW,2013-03-01 12:02:00,
2013-03-01 07:07:00,40.7,30.5,29.75,South,180,1.3,2.0,67,0.00,,,0.00,WUHU216HW,2013-03-01 12:07:00,
2013-03-01 07:12:00,40.7,30.5,29.76,ENE,68,0.7,3.4,67,0.00,,,0.00,WUHU216HW,2013-03-01 12:12:00,
2013-03-01 07:17:00,40.7,30.5,29.76,SSW,203,1.8,3.4,67,0.00,,,0.00,WUHU216HW,2013-03-01 12:17:00,
2013-03-01 07:22:00,40.7,30.5,29.77,ESE,113,0.4,1.8,67,0.00,,,0.00,WUHU216HW,2013-03-01 12:22:00,
2013-03-01 07:27:00,40.7,30.5,29.77,SE,135,0.9,1.8,67,0.00,,,0.00,WUHU216HW,2013-03-01 12:27:00,
2013-03-01 07:32:00,40.9,30.7,29.77,ESE,113,1.3,3.4,67,0.00,,,0.00,WUHU216HW,2013-03-01 12:32:00,
2013-03-01 07:37:00,41.0,30.9,29.77,SE,135,1.1,3.4,67,0.00,,,0.00,WUHU216HW,2013-03-01 12:37:00,
2013-03-01 07:42:00,41.0,30.9,29.78,SE,135,1.6,1.8,67,0.00,,,0.00,WUHU216HW,2013-03-01 12:42:00,
2013-03-01 07:47:00,41.2,31.1,29.78,SE,135,2.5,2.5,67,0.00,,,0.00,WUHU216HW,2013-03-01 12:47:00,
2013-03-01 07:52:00,41.4,30.9,29.78,East,90,0.7,2.5,66,0.00,,,0.00,WUHU216HW,2013-03-01 12:52:00,
2013-03-01 07:57:00,41.8,31.2,29.78,SSE,158,1.1,3.1,66,0.00,,,0.00,WUHU216HW,2013-03-01 12:57:00,
2013-03-01 08:02:00,41.8,31.2,29.78,SE,135,1.3,3.1,66,0.00,,,0.00,WUHU216HW,2013-03-01 13:02:00,
2013-03-01 08:08:00,42.1,31.1,29.79,East,90,0.9,2.0,65,0.00,,,0.00,WUHU216HW,2013-03-01 13:08:00,
2013-03-01 08:13:00,42.1,31.1,29.79,SE,135,1.1,2.0,65,0.00,,,0.00,WUHU216HW,2013-03-01 13:13:00,
2013-03-01 08:18:00,42.3,31.3,29.79,SE,135,3.1,3.1,65,0.00,,,0.00,WUHU216HW,2013-03-01 13:18:00,
2013-03-01 08:23:00,42.3,31.0,29.79,SE,135,1.1,3.1,64,0.00,,,0.00,WUHU216HW,2013-03-01 13:23:00,
2013-03-01 08:28:00,42.3,31.0,29.79,SSE,158,1.8,2.0,64,0.00,,,0.00,WUHU216HW,2013-03-01 13:28:00,
2013-03-01 08:33:00,42.5,30.7,29.79,ESE,113,1.3,6.3,63,0.00,,,0.00,WUHU216HW,2013-03-01 13:33:00,
2013-03-01 08:38:00,42.5,31.2,29.80,ESE,113,1.8,6.3,64,0.00,,,0.00,WUHU216HW,2013-03-01 13:38:00,
2013-03-01 08:43:00,42.5,31.2,29.79,NNW,338,0.4,2.7,64,0.00,,,0.00,WUHU216HW,2013-03-01 13:43:00,
2013-03-01 08:48:00,42.7,30.9,29.79,SW,225,1.3,4.3,63,0.00,,,0.00,WUHU216HW,2013-03-01 13:48:00,
2013-03-01 08:54:00,42.8,31.1,29.79,ESE,113,1.6,4.3,63,0.00,,,0.00,WUHU216HW,2013-03-01 13:54:00,
2013-03-01 08:59:00,42.8,31.1,29.79,East,90,2.5,3.8,63,0.00,,,0.00,WUHU216HW,2013-03-01 13:59:00,
2013-03-01 09:04:00,42.8,31.1,29.79,SSE,158,1.3,3.8,63,0.00,,,0.00,WUHU216HW,2013-03-01 14:04:00,
2013-03-01 09:09:00,43.0,31.2,29.79,SE,135,1.3,3.4,63,0.00,,,0.00,WUHU216HW,2013-03-01 14:09:00,
2013-03-01 09:14:00,43.2,31.1,29.79,SSW,203,2.7,3.4,62,0.00,,,0.00,WUHU216HW,2013-03-01 14:14:00,
2013-03-01 09:19:00,43.4,31.2,29.79,SW,225,1.6,2.7,62,0.00,,,0.00,WUHU216HW,2013-03-01 14:19:00,
2013-03-01 09:24:00,43.7,31.1,29.79,East,90,1.8,2.7,61,0.00,,,0.00,WUHU216HW,2013-03-01 14:24:00,
2013-03-01 09:29:00,43.7,31.1,29.79,WSW,248,3.1,3.1,61,0.00,,,0.00,WUHU216HW,2013-03-01 14:29:00,
2013-03-01 09:34:00,44.1,31.5,29.79,SE,135,3.1,3.4,61,0.00,,,0.00,WUHU216HW,2013-03-01 14:34:00,
2013-03-01 09:40:00,44.3,31.7,29.79,SE,135,2.2,3.4,61,0.00,,,0.00,WUHU216HW,2013-03-01 14:40:00,
2013-03-01 09:45:00,44.3,31.3,29.79,SSW,203,1.8,3.1,60,0.00,,,0.00,WUHU216HW,2013-03-01 14:45:00,
2013-03-01 09:50:00,44.6,31.7,29.79,SE,135,3.8,4.3,60,0.00,,,0.00,WUHU216HW,2013-03-01 14:50:00,
2013-03-01 09:55:00,44.8,31.9,29.79,South,180,4.0,4.3,60,0.00,,,0.00,WUHU216HW,2013-03-01 14:55:00,
2013-03-01 10:00:00,44.6,31.2,29.79,SW,225,2.5,4.0,59,0.00,,,0.00,WUHU216HW,2013-03-01 15:00:00,
2013-03-01 10:05:00,44.6,31.2,29.79,NE,45,0.9,3.6,59,0.00,,,0.00,WUHU216HW,2013-03-01 15:05:00,
2013-03-01 10:10:00,44.6,31.2,29.79,SSE,158,3.1,3.6,59,0.00,,,0.00,WUHU216HW,2013-03-01 15:10:00,
2013-03-01 10:15:00,44.6,31.7,29.79,SSW,203,0.4,3.1,60,0.00,,,0.00,WUHU216HW,2013-03-01 15:15:00,
2013-03-01 10:20:00,44.6,31.2,29.79,ESE,113,1.8,2.5,59,0.00,,,0.00,WUHU216HW,2013-03-01 15:20:00,
2013-03-01 10:25:00,45.0,31.6,29.79,SSE,158,2.0,2.7,59,0.00,,,0.00,WUHU216HW,2013-03-01 15:25:00,
2013-03-01 10:31:00,45.0,31.2,29.79,South,180,2.5,4.0,58,0.00,,,0.00,WUHU216HW,2013-03-01 15:31:00,
2013-03-01 10:36:00,45.0,31.2,29.79,East,90,1.1,4.0,58,0.00,,,0.00,WUHU216HW,2013-03-01 15:36:00,
2013-03-01 10:41:00,45.0,30.7,29.80,SSE,158,2.5,2.5,57,0.00,,,0.00,WUHU216HW,2013-03-01 15:41:00,
2013-03-01 10:46:00,44.8,30.5,29.80,SSE,158,1.8,3.4,57,0.00,,,0.00,WUHU216HW,2013-03-01 15:46:00,
2013-03-01 10:51:00,44.6,29.9,29.80,SSE,158,3.4,4.0,56,0.00,,,0.00,WUHU216HW,2013-03-01 15:51:00,
2013-03-01 10:56:00,44.6,29.9,29.79,ESE,113,1.8,4.0,56,0.00,,,0.00,WUHU216HW,2013-03-01 15:56:00,
2013-03-01 11:01:00,45.2,30.8,29.80,ESE,113,2.0,3.6,57,0.00,,,0.00,WUHU216HW,2013-03-01 16:01:00,
2013-03-01 11:06:00,45.2,30.8,29.79,ESE,113,2.2,3.1,57,0.00,,,0.00,WUHU216HW,2013-03-01 16:06:00,
2013-03-01 11:11:00,45.7,31.3,29.80,SW,225,1.6,3.1,57,0.00,,,0.00,WUHU216HW,2013-03-01 16:11:00,
2013-03-01 11:16:00,45.7,30.9,29.80,East,90,0.4,4.7,56,0.00,,,0.00,WUHU216HW,2013-03-01 16:16:00,
2013-03-01 11:22:00,45.9,30.6,29.80,SW,225,1.8,4.7,55,0.00,,,0.00,WUHU216HW,2013-03-01 16:22:00,
2013-03-01 11:27:00,46.3,31.3,29.80,ESE,113,2.0,3.4,56,0.00,,,0.00,WUHU216HW,2013-03-01 16:27:00,
2013-03-01 11:32:00,46.4,31.5,29.80,NNW,338,3.4,3.4,56,0.00,,,0.00,WUHU216HW,2013-03-01 16:32:00,
2013-03-01 11:37:00,46.4,31.1,29.80,East,90,4.0,5.1,55,0.00,,,0.00,WUHU216HW,2013-03-01 16:37:00,
2013-03-01 11:42:00,46.4,31.1,29.80,SSW,203,0.7,5.1,55,0.00,,,0.00,WUHU216HW,2013-03-01 16:42:00,
2013-03-01 11:47:00,46.1,29.8,29.80,SW,225,1.6,4.0,53,0.00,,,0.00,WUHU216HW,2013-03-01 16:47:00,
2013-03-01 11:52:00,46.3,30.4,29.80,SE,135,1.6,4.0,54,0.00,,,0.00,WUHU216HW,2013-03-01 16:52:00,
2013-03-01 11:57:00,46.3,30.0,29.80,ENE,68,0.9,2.9,53,0.00,,,0.00,WUHU216HW,2013-03-01 16:57:00,
2013-03-01 12:02:00,46.8,31.0,29.79,ESE,113,2.2,2.7,54,0.00,,,0.00,WUHU216HW,2013-03-01 17:02:00,
2013-03-01 12:07:00,47.2,30.8,29.80,SE,135,1.8,4.7,53,0.00,,,0.00,WUHU216HW,2013-03-01 17:07:00,
2013-03-01 12:12:00,46.8,30.5,29.79,SE,135,0.4,4.7,53,0.00,,,0.00,WUHU216HW,2013-03-01 17:12:00,
2013-03-01 12:17:00,47.0,30.7,29.79,SSE,158,0.9,4.0,53,0.00,,,0.00,WUHU216HW,2013-03-01 17:17:00,
2013-03-01 12:23:00,46.6,29.4,29.80,SE,135,3.4,4.7,51,0.00,,,0.00,WUHU216HW,2013-03-01 17:23:00,
2013-03-01 12:28:00,46.4,30.2,29.79,SSE,158,1.8,4.7,53,0.00,,,0.00,WUHU216HW,2013-03-01 17:28:00,
2013-03-01 12:33:00,46.4,29.3,29.79,ESE,113,4.9,4.9,51,0.00,,,0.00,WUHU216HW,2013-03-01 17:33:00,
2013-03-01 12:38:00,46.4,29.7,29.80,SW,225,3.1,4.9,52,0.00,,,0.00,WUHU216HW,2013-03-01 17:38:00,
2013-03-01 12:43:00,46.1,28.9,29.80,South,180,4.0,4.0,51,0.00,,,0.00,WUHU216HW,2013-03-01 17:43:00,
2013-03-01 12:48:00,46.1,28.9,29.79,WSW,248,0.9,4.0,51,0.00,,,0.00,WUHU216HW,2013-03-01 17:48:00,
2013-03-01 12:53:00,46.1,28.9,29.79,ESE,113,2.2,4.0,51,0.00,,,0.00,WUHU216HW,2013-03-01 17:53:00,
2013-03-01 12:58:00,46.1,28.9,29.79,East,90,3.1,4.3,51,0.00,,,0.00,WUHU216HW,2013-03-01 17:58:00,
2013-03-01 13:03:00,46.1,28.9,29.79,SE,135,2.2,4.3,51,0.00,,,0.00,WUHU216HW,2013-03-01 18:03:00,
2013-03-01 13:08:00,45.9,28.8,29.79,ESE,113,3.1,3.4,51,0.00,,,0.00,WUHU216HW,2013-03-01 18:08:00,
2013-03-01 13:13:00,45.7,28.6,29.79,SSE,158,1.1,3.4,51,0.00,,,0.00,WUHU216HW,2013-03-01 18:13:00,
2013-03-01 13:19:00,45.9,29.3,29.79,SE,135,2.9,4.7,52,0.00,,,0.00,WUHU216HW,2013-03-01 18:19:00,
2013-03-01 13:24:00,45.9,29.3,29.79,NNE,23,1.3,4.7,52,0.00,,,0.00,WUHU216HW,2013-03-01 18:24:00,
2013-03-01 13:29:00,45.9,29.3,29.78,SSE,158,1.1,2.9,52,0.00,,,0.00,WUHU216HW,2013-03-01 18:29:00,
2013-03-01 13:34:00,45.7,29.1,29.78,North,0,1.3,2.9,52,0.00,,,0.00,WUHU216HW,2013-03-01 18:34:00,
2013-03-01 13:39:00,45.7,29.1,29.78,ESE,113,1.1,2.7,52,0.00,,,0.00,WUHU216HW,2013-03-01 18:39:00,
2013-03-01 13:44:00,45.7,29.1,29.78,SE,135,1.8,2.5,52,0.00,,,0.00,WUHU216HW,2013-03-01 18:44:00,
2013-03-01 13:49:00,45.5,28.9,29.78,SE,135,0.4,2.5,52,0.00,,,0.00,WUHU216HW,2013-03-01 18:49:00,
2013-03-01 13:54:00,45.7,29.1,29.78,ESE,113,0.9,2.5,52,0.00,,,0.00,WUHU216HW,2013-03-01 18:54:00,
2013-03-01 13:59:00,45.9,29.3,29.77,SE,135,2.5,2.5,52,0.00,,,0.00,WUHU216HW,2013-03-01 18:59:00,
2013-03-01 14:04:00,46.1,29.3,29.78,East,90,2.5,2.5,52,0.00,,,0.00,WUHU216HW,2013-03-01 19:04:00,
2013-03-01 14:09:00,46.3,29.5,29.78,ESE,113,1.1,2.5,52,0.00,,,0.00,WUHU216HW,2013-03-01 19:09:00,
2013-03-01 14:14:00,46.1,29.3,29.78,East,90,0.7,2.2,52,0.00,,,0.00,WUHU216HW,2013-03-01 19:14:00,
2013-03-01 14:19:00,45.7,28.6,29.78,SE,135,2.5,3.4,51,0.00,,,0.00,WUHU216HW,2013-03-01 19:19:00,
2013-03-01 14:24:00,45.7,28.6,29.78,West,270,0.7,3.4,51,0.00,,,0.00,WUHU216HW,2013-03-01 19:24:00,
2013-03-01 14:29:00,45.5,28.4,29.78,SE,135,1.8,2.2,51,0.00,,,0.00,WUHU216HW,2013-03-01 19:29:00,
2013-03-01 14:34:00,45.5,28.4,29.78,ESE,113,1.3,4.3,51,0.00,,,0.00,WUHU216HW,2013-03-01 19:34:00,
2013-03-01 14:39:00,45.4,28.3,29.78,ESE,113,1.1,4.3,51,0.00,,,0.00,WUHU216HW,2013-03-01 19:39:00,
2013-03-01 14:44:00,45.0,27.6,29.78,East,90,2.7,3.4,50,0.00,,,0.00,WUHU216HW,2013-03-01 19:44:00,
2013-03-01 14:49:00,44.6,27.6,29.78,ESE,113,0.9,3.1,51,0.00,,,0.00,WUHU216HW,2013-03-01 19:49:00,
2013-03-01 14:54:00,44.6,28.1,29.78,WNW,293,0.9,3.1,52,0.00,,,0.00,WUHU216HW,2013-03-01 19:54:00,
2013-03-01 14:59:00,44.6,28.1,29.78,West,270,0.9,2.7,52,0.00,,,0.00,WUHU216HW,2013-03-01 19:59:00,
2013-03-01 15:04:00,44.6,28.1,29.78,South,180,1.6,2.0,52,0.00,,,0.00,WUHU216HW,2013-03-01 20:04:00,
2013-03-01 15:09:00,44.5,28.4,29.78,North,0,1.1,3.4,53,0.00,,,0.00,WUHU216HW,2013-03-01 20:09:00,
2013-03-01 15:14:00,44.3,28.2,29.78,SE,135,0.7,3.4,53,0.00,,,0.00,WUHU216HW,2013-03-01 20:14:00,
2013-03-01 15:19:00,44.3,28.2,29.78,South,180,0.9,2.7,53,0.00,,,0.00,WUHU216HW,2013-03-01 20:19:00,
2013-03-01 15:24:00,44.3,28.2,29.78,WSW,248,1.6,1.6,53,0.00,,,0.00,WUHU216HW,2013-03-01 20:24:00,
2013-03-01 15:29:00,44.5,28.4,29.78,SE,135,1.8,2.5,53,0.00,,,0.00,WUHU216HW,2013-03-01 20:29:00,
2013-03-01 15:34:00,44.5,28.4,29.78,ESE,113,0.9,4.7,53,0.00,,,0.00,WUHU216HW,2013-03-01 20:34:00,
2013-03-01 15:39:00,44.5,28.4,29.78,NE,45,1.8,4.7,53,0.00,,,0.00,WUHU216HW,2013-03-01 20:39:00,
2013-03-01 15:44:00,44.3,27.7,29.78,South,180,3.8,4.0,52,0.00,,,0.00,WUHU216HW,2013-03-01 20:44:00,
2013-03-01 15:49:00,44.3,28.2,29.78,SSW,203,0.0,4.0,53,0.00,,,0.00,WUHU216HW,2013-03-01 20:49:00,
2013-03-01 15:54:00,44.3,27.7,29.77,SE,135,1.6,5.8,52,0.00,,,0.00,WUHU216HW,2013-03-01 20:54:00,
2013-03-01 16:00:00,44.5,27.9,29.78,ESE,113,0.2,5.8,52,0.00,,,0.00,WUHU216HW,2013-03-01 21:00:00,
2013-03-01 16:05:00,44.6,27.6,29.78,ENE,68,4.0,4.0,51,0.00,,,0.00,WUHU216HW,2013-03-01 21:05:00,
2013-03-01 16:10:00,44.6,27.6,29.78,ESE,113,1.3,4.0,51,0.00,,,0.00,WUHU216HW,2013-03-01 21:10:00,
2013-03-01 16:15:00,44.5,27.5,29.78,SW,225,1.8,4.5,51,0.00,,,0.00,WUHU216HW,2013-03-01 21:15:00,
2013-03-01 16:20:00,44.3,27.3,29.79,SE,135,1.1,4.9,51,0.00,,,0.00,WUHU216HW,2013-03-01 21:20:00,
2013-03-01 16:25:00,44.3,27.7,29.79,ESE,113,0.4,4.9,52,0.00,,,0.00,WUHU216HW,2013-03-01 21:25:00,
2013-03-01 16:30:00,44.3,27.7,29.79,ENE,68,1.8,3.4,52,0.00,,,0.00,WUHU216HW,2013-03-01 21:30:00,
2013-03-01 16:35:00,44.1,28.0,29.79,SE,135,1.3,2.9,53,0.00,,,0.00,WUHU216HW,2013-03-01 21:35:00,
2013-03-01 16:40:00,44.1,28.0,29.79,South,180,1.1,4.0,53,0.00,,,0.00,WUHU216HW,2013-03-01 21:40:00,
2013-03-01 16:45:00,43.9,27.9,29.79,SSE,158,2.7,4.0,53,0.00,,,0.00,WUHU216HW,2013-03-01 21:45:00,
2013-03-01 16:50:00,43.6,27.6,29.79,SE,135,1.8,4.0,53,0.00,,,0.00,WUHU216HW,2013-03-01 21:50:00,
2013-03-01 16:55:00,43.4,27.4,29.80,ESE,113,0.9,4.0,53,0.00,,,0.00,WUHU216HW,2013-03-01 21:55:00,
2013-03-01 17:00:00,43.2,27.2,29.79,SE,135,2.2,2.2,53,0.00,,,0.00,WUHU216HW,2013-03-01 22:00:00,
2013-03-01 17:05:00,43.0,27.0,29.79,NNW,338,0.9,2.2,53,0.00,,,0.00,WUHU216HW,2013-03-01 22:05:00,
2013-03-01 17:10:00,42.8,26.8,29.80,ESE,113,1.6,2.5,53,0.00,,,0.00,WUHU216HW,2013-03-01 22:10:00,
2013-03-01 17:15:00,42.8,26.8,29.80,ENE,68,0.2,2.5,53,0.00,,,0.00,WUHU216HW,2013-03-01 22:15:00,
2013-03-01 17:20:00,42.7,26.6,29.80,SSE,158,1.3,1.6,53,0.00,,,0.00,WUHU216HW,2013-03-01 22:20:00,
2013-03-01 17:25:00,42.7,27.1,29.80,ESE,113,2.7,2.7,54,0.00,,,0.00,WUHU216HW,2013-03-01 22:25:00,
2013-03-01 17:31:00,42.5,26.9,29.80,East,90,1.8,2.7,54,0.00,,,0.00,WUHU216HW,2013-03-01 22:31:00,
2013-03-01 17:36:00,42.5,26.9,29.81,ESE,113,1.8,2.0,54,0.00,,,0.00,WUHU216HW,2013-03-01 22:36:00,
2013-03-01 17:41:00,42.3,26.7,29.81,SE,135,2.9,2.9,54,0.00,,,0.00,WUHU216HW,2013-03-01 22:41:00,
2013-03-01 17:46:00,42.1,27.0,29.81,SE,135,2.5,3.1,55,0.00,,,0.00,WUHU216HW,2013-03-01 22:46:00,
2013-03-01 17:51:00,42.1,27.0,29.81,SSW,203,0.9,3.1,55,0.00,,,0.00,WUHU216HW,2013-03-01 22:51:00,
2013-03-01 17:56:00,41.9,26.9,29.81,SW,225,1.1,2.2,55,0.00,,,0.00,WUHU216HW,2013-03-01 22:56:00,
2013-03-01 18:01:00,41.8,27.2,29.81,SSW,203,1.3,4.0,56,0.00,,,0.00,WUHU216HW,2013-03-01 23:01:00,
2013-03-01 18:06:00,41.8,27.2,29.81,ESE,113,0.0,4.0,56,0.00,,,0.00,WUHU216HW,2013-03-01 23:06:00,
2013-03-01 18:11:00,41.6,27.0,29.81,ESE,113,1.3,2.5,56,0.00,,,0.00,WUHU216HW,2013-03-01 23:11:00,
2013-03-01 18:16:00,41.6,27.0,29.81,East,90,1.8,3.1,56,0.00,,,0.00,WUHU216HW,2013-03-01 23:16:00,
2013-03-01 18:21:00,41.4,26.8,29.81,SSW,203,1.8,3.1,56,0.00,,,0.00,WUHU216HW,2013-03-01 23:21:00,
2013-03-01 18:26:00,41.4,26.8,29.81,ESE,113,0.0,1.8,56,0.00,,,0.00,WUHU216HW,2013-03-01 23:26:00,
2013-03-01 18:31:00,41.4,26.8,29.82,East,90,0.4,1.8,56,0.00,,,0.00,WUHU216HW,2013-03-01 23:31:00,
2013-03-01 18:36:00,41.4,26.8,29.81,WSW,248,0.4,2.5,56,0.00,,,0.00,WUHU216HW,2013-03-01 23:36:00,
2013-03-01 18:41:00,41.4,26.8,29.81,ESE,113,0.2,2.5,56,0.00,,,0.00,WUHU216HW,2013-03-01 23:41:00,
2013-03-01 18:46:00,41.4,26.8,29.82,East,90,3.1,3.1,56,0.00,,,0.00,WUHU216HW,2013-03-01 23:46:00,
2013-03-01 18:52:00,41.4,26.8,29.81,NW,315,1.1,3.1,56,0.00,,,0.00,WUHU216HW,2013-03-01 23:52:00,
2013-03-01 18:57:00,41.2,26.7,29.82,SSE,158,1.8,3.1,56,0.00,,,0.00,WUHU216HW,2013-03-01 23:57:00,
2013-03-01 19:02:00,41.2,26.7,29.82,ESE,113,0.9,4.0,56,0.00,,,0.00,WUHU216HW,2013-03-02 00:02:00,
2013-03-01 19:07:00,41.0,26.5,29.82,SE,135,0.7,4.0,56,0.00,,,0.00,WUHU216HW,2013-03-02 00:07:00,
2013-03-01 19:12:00,41.0,26.5,29.82,SSE,158,0.0,2.5,56,0.00,,,0.00,WUHU216HW,2013-03-02 00:12:00,
2013-03-01 19:17:00,41.0,26.9,29.82,SW,225,1.1,2.0,57,0.00,,,0.00,WUHU216HW,2013-03-02 00:17:00,
2013-03-01 19:22:00,40.9,26.7,29.82,North,0,0.7,2.9,57,0.00,,,0.00,WUHU216HW,2013-03-02 00:22:00,
2013-03-01 19:27:00,40.9,26.7,29.82,SSE,158,1.3,2.9,57,0.00,,,0.00,WUHU216HW,2013-03-02 00:27:00,
2013-03-01 19:32:00,40.9,26.7,29.82,ESE,113,0.9,2.5,57,0.00,,,0.00,WUHU216HW,2013-03-02 00:32:00,
2013-03-01 19:37:00,40.7,27.0,29.82,ESE,113,2.0,2.5,58,0.00,,,0.00,WUHU216HW,2013-03-02 00:37:00,
2013-03-01 19:42:00,40.7,27.0,29.83,ESE,113,2.9,6.9,58,0.00,,,0.00,WUHU216HW,2013-03-02 00:42:00,
2013-03-01 19:47:00,40.7,27.0,29.83,SW,225,1.1,6.9,58,0.00,,,0.00,WUHU216HW,2013-03-02 00:47:00,
2013-03-01 19:52:00,40.7,27.0,29.83,SE,135,3.6,4.0,58,0.00,,,0.00,WUHU216HW,2013-03-02 00:52:00,
2013-03-01 19:57:00,40.7,27.5,29.83,SE,135,4.5,4.5,59,0.00,,,0.00,WUHU216HW,2013-03-02 00:57:00,
2013-03-01 20:03:00,40.5,27.3,29.83,SW,225,1.1,4.5,59,0.00,,,0.00,WUHU216HW,2013-03-02 01:03:00,
2013-03-01 20:08:00,40.5,27.3,29.84,SE,135,0.4,4.7,59,0.00,,,0.00,WUHU216HW,2013-03-02 01:08:00,
2013-03-01 20:13:00,40.5,27.3,29.84,SSE,158,1.6,4.7,59,0.00,,,0.00,WUHU216HW,2013-03-02 01:13:00,
2013-03-01 20:18:00,40.3,27.1,29.84,West,270,3.1,3.1,59,0.00,,,0.00,WUHU216HW,2013-03-02 01:18:00,
2013-03-01 20:23:00,40.3,27.5,29.84,ESE,113,1.1,3.1,60,0.00,,,0.00,WUHU216HW,2013-03-02 01:23:00,
2013-03-01 20:28:00,40.1,27.4,29.84,ESE,113,0.7,1.6,60,0.00,,,0.00,WUHU216HW,2013-03-02 01:28:00,
2013-03-01 20:33:00,40.1,27.4,29.84,East,90,1.1,2.7,60,0.00,,,0.00,WUHU216HW,2013-03-02 01:33:00,
2013-03-01 20:38:00,40.1,27.7,29.85,SE,135,0.9,2.7,61,0.00,,,0.00,WUHU216HW,2013-03-02 01:38:00,
2013-03-01 20:43:00,40.1,27.7,29.85,East,90,1.3,2.5,61,0.00,,,0.00,WUHU216HW,2013-03-02 01:43:00,
2013-03-01 20:48:00,40.0,27.5,29.85,WSW,248,1.1,2.2,61,0.00,,,0.00,WUHU216HW,2013-03-02 01:48:00,
2013-03-01 20:53:00,40.0,27.5,29.85,WSW,248,3.4,3.4,61,0.00,,,0.00,WUHU216HW,2013-03-02 01:53:00,
2013-03-01 20:58:00,40.0,27.9,29.85,ENE,68,0.7,3.4,62,0.00,,,0.00,WUHU216HW,2013-03-02 01:58:00,
2013-03-01 21:03:00,39.8,27.7,29.85,South,180,2.7,2.7,62,0.00,,,0.00,WUHU216HW,2013-03-02 02:03:00,
2013-03-01 21:08:00,39.6,28.0,29.86,ESE,113,0.9,2.7,63,0.00,,,0.00,WUHU216HW,2013-03-02 02:08:00,
2013-03-01 21:13:00,39.4,27.8,29.85,ESE,113,0.2,4.3,63,0.00,,,0.00,WUHU216HW,2013-03-02 02:13:00,
2013-03-01 21:18:00,39.2,27.6,29.85,ESE,113,0.2,4.3,63,0.00,,,0.00,WUHU216HW,2013-03-02 02:18:00,
2013-03-01 21:23:00,39.2,27.6,29.85,ENE,68,2.0,2.0,63,0.00,,,0.00,WUHU216HW,2013-03-02 02:23:00,
2013-03-01 21:28:00,39.2,27.6,29.85,SE,135,0.7,2.0,63,0.00,,,0.00,WUHU216HW,2013-03-02 02:28:00,
2013-03-01 21:33:00,39.1,27.5,29.86,SE,135,0.9,1.8,63,0.00,,,0.00,WUHU216HW,2013-03-02 02:33:00,
2013-03-01 21:38:00,39.1,27.5,29.86,SE,135,1.1,1.8,63,0.00,,,0.00,WUHU216HW,2013-03-02 02:38:00,
2013-03-01 21:43:00,38.9,27.3,29.86,ESE,113,0.9,2.7,63,0.00,,,0.00,WUHU216HW,2013-03-02 02:43:00,
2013-03-01 21:49:00,38.7,27.1,29.86,ENE,68,2.7,2.7,63,0.00,,,0.00,WUHU216HW,2013-03-02 02:49:00,
2013-03-01 21:54:00,38.7,27.1,29.86,SE,135,3.4,3.4,63,0.00,,,0.00,WUHU216HW,2013-03-02 02:54:00,
2013-03-01 21:59:00,38.5,27.4,29.86,ESE,113,0.7,3.4,64,0.00,,,0.00,WUHU216HW,2013-03-02 02:59:00,
2013-03-01 22:04:00,38.5,27.4,29.86,East,90,0.4,2.2,64,0.00,,,0.00,WUHU216HW,2013-03-02 03:04:00,
2013-03-01 22:09:00,38.5,27.4,29.86,SE,135,1.8,1.8,64,0.00,,,0.00,WUHU216HW,2013-03-02 03:09:00,
2013-03-01 22:14:00,38.5,27.4,29.86,SE,135,1.8,1.8,64,0.00,,,0.00,WUHU216HW,2013-03-02 03:14:00,
2013-03-01 22:37:00,38.3,27.2,29.86,East,90,2.5,2.5,64,0.00,,,0.00,WUHU216HW,2013-03-02 03:37:00,
2013-03-01 22:42:00,38.2,27.0,29.86,ESE,113,2.9,2.9,64,0.00,,,0.00,WUHU216HW,2013-03-02 03:42:00,
2013-03-01 22:47:00,38.2,27.0,29.86,South,180,1.3,2.9,64,0.00,,,0.00,WUHU216HW,2013-03-02 03:47:00,
2013-03-01 22:52:00,38.2,27.0,29.86,SE,135,0.7,2.2,64,0.00,,,0.00,WUHU216HW,2013-03-02 03:52:00,
2013-03-01 22:57:00,38.2,26.7,29.85,SE,135,0.9,1.8,63,0.00,,,0.00,WUHU216HW,2013-03-02 03:57:00,
2013-03-01 23:02:00,38.2,27.0,29.86,South,180,1.3,2.5,64,0.00,,,0.00,WUHU216HW,2013-03-02 04:02:00,
2013-03-01 23:07:00,38.2,26.7,29.86,SE,135,1.1,2.5,63,0.00,,,0.00,WUHU216HW,2013-03-02 04:07:00,
2013-03-01 23:12:00,38.0,26.5,29.86,ESE,113,1.3,2.0,63,0.00,,,0.00,WUHU216HW,2013-03-02 04:12:00,
2013-03-01 23:18:00,38.0,26.5,29.86,ESE,113,0.9,2.0,63,0.00,,,0.00,WUHU216HW,2013-03-02 04:18:00,
2013-03-01 23:23:00,37.8,26.3,29.86,SE,135,0.0,1.6,63,0.00,,,0.00,WUHU216HW,2013-03-02 04:23:00,
2013-03-01 23:28:00,37.8,26.3,29.86,West,270,2.0,2.0,63,0.00,,,0.00,WUHU216HW,2013-03-02 04:28:00,
2013-03-01 23:33:00,37.8,26.3,29.86,SSE,158,1.8,2.0,63,0.00,,,0.00,WUHU216HW,2013-03-02 04:33:00,
2013-03-01 23:38:00,37.8,26.3,29.86,ESE,113,0.7,1.8,63,0.00,,,0.00,WUHU216HW,2013-03-02 04:38:00,
2013-03-01 23:43:00,37.8,26.3,29.86,ESE,113,1.1,1.8,63,0.00,,,0.00,WUHU216HW,2013-03-02 04:43:00,
2013-03-01 23:48:00,37.8,26.3,29.86,ENE,68,0.9,2.7,63,0.00,,,0.00,WUHU216HW,2013-03-02 04:48:00,
2013-03-01 23:53:00,37.6,26.1,29.86,SW,225,2.2,2.7,63,0.00,,,0.00,WUHU216HW,2013-03-02 04:53:00,
2013-03-01 23:58:00,37.6,26.1,29.86,SSE,158,1.3,4.0,63,0.00,,,0.00,WUHU216HW,2013-03-02 04:58:00,